createdAt,value
2022-09-28T00:00:24.060Z,93658.44
2022-09-28T00:02:26.599Z,93649.97
2022-09-28T00:04:28.401Z,93650.03
2022-09-28T00:06:30.772Z,93651.50
2022-09-28T00:08:33.472Z,93657.03
2022-09-28T00:10:35.089Z,93641.41
2022-09-28T00:12:36.897Z,93646.13
2022-09-28T00:14:40.815Z,93652.69
2022-09-28T00:16:43.933Z,93650.69
2022-09-28T00:18:45.994Z,93640.53
2022-09-28T00:20:47.602Z,93638.53
2022-09-28T00:22:49.258Z,93641.16
2022-09-28T00:24:50.847Z,93631.84
2022-09-28T00:26:54.949Z,93637.31
2022-09-28T00:28:59.277Z,93636.50
2022-09-28T00:31:01.213Z,93633.25
2022-09-28T00:33:02.861Z,93647.03
2022-09-28T00:35:05.029Z,93641.13
2022-09-28T00:37:08.949Z,93653.53
2022-09-28T00:39:11.770Z,93623.91
2022-09-28T00:41:13.782Z,93631.00
2022-09-28T00:43:20.449Z,93641.78
2022-09-28T00:45:24.993Z,93637.31
2022-09-28T00:47:55.770Z,93634.88
2022-09-28T00:50:22.384Z,93637.72
2022-09-28T00:52:31.361Z,93644.97
2022-09-28T00:54:33.941Z,93637.47
2022-09-28T00:56:36.678Z,93640.09
2022-09-28T00:58:45.324Z,93640.09
2022-09-28T01:00:48.601Z,93639.50
2022-09-28T01:02:50.252Z,93643.78
2022-09-28T01:04:52.264Z,93642.16
2022-09-28T01:06:54.079Z,93644.56
2022-09-28T01:08:58.908Z,93641.75
2022-09-28T01:11:00.799Z,93646.81
2022-09-28T01:13:02.513Z,93644.38
2022-09-28T01:15:05.624Z,93641.22
2022-09-28T01:17:12.277Z,93644.47
2022-09-28T01:19:22.265Z,93640.41
2022-09-28T01:21:24.603Z,93638.59
2022-09-28T01:23:44.988Z,93638.97
2022-09-28T01:26:09.246Z,93641.41
2022-09-28T01:28:16.206Z,93638.97
2022-09-28T01:30:20.481Z,93648.59
2022-09-28T01:32:22.096Z,93647.00
2022-09-28T01:35:03.710Z,93656.50
2022-09-28T01:37:07.829Z,93662.00
2022-09-28T01:39:12.782Z,93644.97
2022-09-28T01:41:17.865Z,93642.94
2022-09-28T01:43:30.509Z,93664.41
2022-09-28T01:45:45.713Z,93651.41
2022-09-28T01:47:48.497Z,93649.03
2022-09-28T01:50:00.777Z,93654.88
2022-09-28T01:52:29.713Z,93644.75
2022-09-28T01:54:36.110Z,93654.50
2022-09-28T01:56:46.050Z,93658.53
2022-09-28T01:58:53.534Z,93656.31
2022-09-28T02:01:02.687Z,93652.25
2022-09-28T02:03:14.378Z,93656.50
2022-09-28T02:05:19.685Z,93652.06
2022-09-28T02:07:50.093Z,93662.78
2022-09-28T02:09:58.702Z,93656.31
2022-09-28T02:12:05.397Z,93664.22
2022-09-28T02:14:11.887Z,93666.44
2022-09-28T02:16:18.317Z,93665.03
2022-09-28T02:18:20.250Z,93660.38
2022-09-28T02:20:24.011Z,93660.53
2022-09-28T02:22:27.260Z,93669.47
2022-09-28T02:24:42.193Z,93670.28
2022-09-28T02:26:45.876Z,93667.63
2022-09-28T02:28:47.557Z,93660.34
2022-09-28T02:30:49.264Z,93655.09
2022-09-28T02:32:53.705Z,93656.91
2022-09-28T02:34:55.510Z,93665.44
2022-09-28T02:36:57.221Z,93660.56
2022-09-28T02:39:02.480Z,93657.53
2022-09-28T02:41:33.100Z,93654.09
2022-09-28T02:43:56.681Z,93654.91
2022-09-28T02:46:16.958Z,93660.16
2022-09-28T02:48:44.132Z,93657.53
2022-09-28T02:51:04.493Z,93667.59
2022-09-28T02:53:30.683Z,93664.53
2022-09-28T02:55:50.700Z,93673.47
2022-09-28T02:58:11.694Z,93672.69
2022-09-28T03:00:23.597Z,93683.66
2022-09-28T03:02:40.560Z,93673.13
2022-09-28T03:05:20.822Z,93677.16
2022-09-28T03:07:38.669Z,93684.44
2022-09-28T03:09:52.544Z,93680.41
2022-09-28T03:11:57.326Z,93692.16
2022-09-28T03:13:59.601Z,93692.34
2022-09-28T03:16:13.779Z,93682.84
2022-09-28T03:18:15.295Z,93698.41
2022-09-28T03:20:17.425Z,93696.81
2022-09-28T03:22:19.006Z,93698.41
2022-09-28T03:24:20.587Z,93697.59
2022-09-28T03:26:22.378Z,93697.81
2022-09-28T03:28:24.012Z,93702.25
2022-09-28T03:30:25.639Z,93711.56
2022-09-28T03:32:27.280Z,93698.81
2022-09-28T03:34:28.849Z,93704.69
2022-09-28T03:36:30.481Z,93702.06
2022-09-28T03:38:32.127Z,93703.91
2022-09-28T03:40:33.795Z,93703.28
2022-09-28T03:42:37.198Z,93704.50
2022-09-28T03:44:39.406Z,93700.84
2022-09-28T03:46:41.052Z,93699.22
2022-09-28T03:48:42.739Z,93698.22
2022-09-28T03:50:44.381Z,93699.81
2022-09-28T03:52:46.084Z,93701.88
2022-09-28T03:54:49.368Z,93697.22
2022-09-28T03:56:52.294Z,93712.59
2022-09-28T03:58:53.876Z,93716.84
2022-09-28T04:00:55.573Z,93702.28
2022-09-28T04:02:57.263Z,93703.06
2022-09-28T04:04:58.833Z,93699.81
2022-09-28T04:07:00.464Z,93692.31
2022-09-28T04:09:02.169Z,93693.97
2022-09-28T04:11:03.746Z,93700.66
2022-09-28T04:13:05.397Z,93702.47
2022-09-28T04:15:07.703Z,93692.94
2022-09-28T04:17:09.332Z,93705.88
2022-09-28T04:19:10.953Z,93704.69
2022-09-28T04:21:14.338Z,93703.91
2022-09-28T04:23:16.171Z,93707.13
2022-09-28T04:25:17.817Z,93710.56
2022-09-28T04:27:37.965Z,93699.84
2022-09-28T04:29:41.777Z,93705.31
2022-09-28T04:31:43.311Z,93706.69
2022-09-28T04:33:45.146Z,93707.72
2022-09-28T04:35:46.765Z,93708.31
2022-09-28T04:37:48.429Z,93702.06
2022-09-28T04:39:50.020Z,93697.97
2022-09-28T04:41:51.711Z,93702.03
2022-09-28T04:43:53.340Z,93703.03
2022-09-28T04:46:05.667Z,93707.47
2022-09-28T04:48:08.010Z,93698.16
2022-09-28T04:50:09.702Z,93694.53
2022-09-28T04:52:17.212Z,93702.44
2022-09-28T04:54:19.775Z,93698.38
2022-09-28T04:56:21.393Z,93697.00
2022-09-28T04:58:23.384Z,93691.53
2022-09-28T05:00:24.951Z,93702.66
2022-09-28T05:02:28.025Z,93698.63
2022-09-28T05:04:30.762Z,93703.47
2022-09-28T05:06:32.374Z,93702.88
2022-09-28T05:08:35.420Z,93706.31
2022-09-28T05:10:40.425Z,93696.38
2022-09-28T05:12:42.008Z,93716.44
2022-09-28T05:14:44.146Z,93704.28
2022-09-28T05:16:45.817Z,93707.09
2022-09-28T05:18:47.583Z,93708.09
2022-09-28T05:20:49.270Z,93707.47
2022-09-28T05:22:50.867Z,93711.13
2022-09-28T05:24:52.545Z,93714.97
2022-09-28T05:26:54.495Z,93708.44
2022-09-28T05:28:56.626Z,93710.88
2022-09-28T05:31:02.926Z,93714.72
2022-09-28T05:33:05.087Z,93710.06
2022-09-28T05:35:07.291Z,93714.34
2022-09-28T05:37:08.907Z,93715.97
2022-09-28T05:39:10.677Z,93717.84
2022-09-28T05:41:12.862Z,93723.28
2022-09-28T05:43:14.563Z,93722.28
2022-09-28T05:45:16.406Z,93725.69
2022-09-28T05:47:17.973Z,93726.91
2022-09-28T05:49:19.633Z,93719.97
2022-09-28T05:51:21.655Z,93725.78
2022-09-28T05:53:23.484Z,93718.59
2022-09-28T05:55:25.430Z,93706.94
2022-09-28T05:57:27.129Z,93708.28
2022-09-28T05:59:30.296Z,93715.06
2022-09-28T06:01:32.022Z,93708.91
2022-09-28T06:03:33.894Z,93707.00
2022-09-28T06:05:36.314Z,93708.81
2022-09-28T06:07:37.949Z,93720.69
2022-09-28T06:09:39.618Z,93712.66
2022-09-28T06:11:41.211Z,93720.84
2022-09-28T06:13:42.849Z,93729.38
2022-09-28T06:15:46.413Z,93719.13
2022-09-28T06:17:48.184Z,93726.13
2022-09-28T06:19:52.424Z,93731.59
2022-09-28T06:21:54.031Z,93734.03
2022-09-28T06:23:55.641Z,93730.56
2022-09-28T06:25:59.343Z,93741.28
2022-09-28T06:28:10.692Z,93739.78
2022-09-28T06:30:12.615Z,93735.38
2022-09-28T06:32:14.717Z,93728.28
2022-09-28T06:34:16.966Z,93744.06
2022-09-28T06:36:20.903Z,93731.94
2022-09-28T06:38:22.618Z,93740.59
2022-09-28T06:40:24.945Z,93734.66
2022-09-28T06:42:26.623Z,93737.28
2022-09-28T06:44:28.439Z,93745.94
2022-09-28T06:46:31.518Z,93754.13
2022-09-28T06:48:35.989Z,93753.50
2022-09-28T06:50:40.533Z,93754.06
2022-09-28T06:52:42.411Z,93746.56
2022-09-28T06:54:43.998Z,93756.25
2022-09-28T06:56:45.682Z,93744.06
2022-09-28T06:58:48.086Z,93741.44
2022-09-28T07:00:53.108Z,93751.34
2022-09-28T07:02:54.827Z,93742.28
2022-09-28T07:04:56.496Z,93753.16
2022-09-28T07:06:59.103Z,93753.53
2022-09-28T07:09:20.938Z,93755.00
2022-09-28T07:11:27.016Z,93751.47
2022-09-28T07:13:49.097Z,93755.50
2022-09-28T07:15:58.007Z,93763.91
2022-09-28T07:18:03.529Z,93753.72
2022-09-28T07:20:17.247Z,93756.50
2022-09-28T07:22:30.662Z,93764.13
2022-09-28T07:24:36.260Z,93757.19
2022-09-28T07:26:37.926Z,93760.13
2022-09-28T07:28:40.509Z,93771.97
2022-09-28T07:30:44.972Z,93767.69
2022-09-28T07:32:48.427Z,93765.56
2022-09-28T07:34:50.269Z,93772.59
2022-09-28T07:36:57.435Z,93762.69
2022-09-28T07:38:59.152Z,93771.19
2022-09-28T07:41:12.873Z,93769.94
2022-09-28T07:43:14.793Z,93773.47
2022-09-28T07:45:16.733Z,93776.22
2022-09-28T07:47:19.180Z,93769.22
2022-09-28T07:49:22.491Z,93766.91
2022-09-28T07:51:24.162Z,93767.81
2022-09-28T07:53:25.953Z,93768.72
2022-09-28T07:55:27.543Z,93770.88
2022-09-28T07:57:29.378Z,93775.28
2022-09-28T07:59:31.768Z,93776.84
2022-09-28T08:01:33.438Z,93774.56
2022-09-28T08:03:35.734Z,93782.06
2022-09-28T08:05:37.643Z,93768.84
2022-09-28T08:07:39.363Z,93776.31
2022-09-28T08:09:41.078Z,93775.06
2022-09-28T08:11:43.891Z,93772.56
2022-09-28T08:13:46.550Z,93775.16
2022-09-28T08:15:51.621Z,93771.03
2022-09-28T08:17:53.444Z,93780.97
2022-09-28T08:20:13.849Z,93778.25
2022-09-28T08:22:17.860Z,93770.50
2022-09-28T08:24:19.585Z,93790.22
2022-09-28T08:26:21.871Z,93778.72
2022-09-28T08:28:24.219Z,93776.25
2022-09-28T08:30:26.775Z,93788.72
2022-09-28T08:32:29.739Z,93789.31
2022-09-28T08:34:31.360Z,93781.03
2022-09-28T08:36:34.467Z,93790.22
2022-09-28T08:38:36.098Z,93786.19
2022-09-28T08:41:04.743Z,93773.00
2022-09-28T08:43:31.265Z,93759.59
2022-09-28T08:45:35.001Z,93770.53
2022-09-28T08:47:59.709Z,93774.59
2022-09-28T08:50:03.583Z,93784.00
2022-09-28T08:52:23.531Z,93769.78
2022-09-28T08:54:49.094Z,93753.50
2022-09-28T08:56:54.430Z,93767.44
2022-09-28T08:59:00.086Z,93765.88
2022-09-28T09:01:02.533Z,93757.66
2022-09-28T09:03:06.319Z,93758.38
2022-09-28T09:05:14.872Z,93757.88
2022-09-28T09:07:25.690Z,93755.06
2022-09-28T09:10:01.154Z,93752.19
2022-09-28T09:12:03.426Z,93754.47
2022-09-28T09:14:21.521Z,93747.00
2022-09-28T09:16:28.758Z,93745.69
2022-09-28T09:18:58.846Z,93743.50
2022-09-28T09:21:10.535Z,93750.78
2022-09-28T09:24:07.668Z,93741.91
2022-09-28T09:26:22.647Z,93737.28
2022-09-28T09:28:35.278Z,93731.91
2022-09-28T09:31:05.754Z,93732.09
2022-09-28T09:33:39.853Z,93739.41
2022-09-28T09:36:09.409Z,93733.97
2022-09-28T09:38:32.562Z,93739.69
2022-09-28T09:40:38.515Z,93731.28
2022-09-28T09:42:59.321Z,93721.34
2022-09-28T09:45:24.844Z,93726.25
2022-09-28T09:47:32.298Z,93730.38
2022-09-28T09:49:44.096Z,93723.28
2022-09-28T09:52:14.652Z,93725.50
2022-09-28T09:54:19.532Z,93726.63
2022-09-28T09:56:50.038Z,93726.34
2022-09-28T09:58:54.054Z,93725.44
2022-09-28T10:01:08.521Z,93734.41
2022-09-28T10:03:24.205Z,93726.75
2022-09-28T10:05:27.867Z,93727.13
2022-09-28T10:07:43.204Z,93726.00
2022-09-28T10:09:46.656Z,93731.09
2022-09-28T10:11:50.442Z,93723.75
2022-09-28T10:13:52.040Z,93721.41
2022-09-28T10:15:53.696Z,93715.53
2022-09-28T10:17:56.901Z,93712.72
2022-09-28T10:19:58.960Z,93710.13
2022-09-28T10:22:04.274Z,93702.22
2022-09-28T10:24:07.801Z,93714.31
2022-09-28T10:26:16.583Z,93691.22
2022-09-28T10:28:23.020Z,93695.91
2022-09-28T10:30:25.696Z,93691.66
2022-09-28T10:32:36.757Z,93694.25
2022-09-28T10:34:38.524Z,93690.59
2022-09-28T10:36:50.722Z,93686.34
2022-09-28T10:38:54.254Z,93684.84
2022-09-28T10:40:58.660Z,93674.84
2022-09-28T10:43:01.008Z,93682.66
2022-09-28T10:45:05.633Z,93681.09
2022-09-28T10:47:15.301Z,93687.19
2022-09-28T10:49:18.333Z,93683.88
2022-09-28T10:51:20.366Z,93672.56
2022-09-28T10:53:21.942Z,93667.06
2022-09-28T10:55:32.179Z,93670.66
2022-09-28T10:57:36.780Z,93664.59
2022-09-28T10:59:42.162Z,93648.94
2022-09-28T11:01:43.970Z,93652.69
2022-09-28T11:03:57.817Z,93656.47
2022-09-28T11:06:08.899Z,93655.66
2022-09-28T11:08:20.782Z,93656.72
2022-09-28T11:10:28.666Z,93664.69
2022-09-28T11:12:38.185Z,93651.28
2022-09-28T11:14:42.604Z,93649.19
2022-09-28T11:16:44.548Z,93642.63
2022-09-28T11:18:46.147Z,93641.41
2022-09-28T11:20:49.574Z,93644.19
2022-09-28T11:22:53.585Z,93644.75
2022-09-28T11:25:16.518Z,93634.63
2022-09-28T11:27:25.498Z,93634.88
2022-09-28T11:29:36.522Z,93624.44
2022-09-28T11:31:39.809Z,93616.16
2022-09-28T11:33:45.796Z,93618.31
2022-09-28T11:36:14.959Z,93621.00
2022-09-28T11:38:27.308Z,93620.44
2022-09-28T11:40:29.008Z,93618.31
2022-09-28T11:42:58.457Z,93616.75
2022-09-28T11:45:29.798Z,93621.22
2022-09-28T11:47:52.906Z,93619.66
2022-09-28T11:50:23.831Z,93627.13
2022-09-28T11:52:49.332Z,93635.13
2022-09-28T11:55:05.682Z,93623.91
2022-09-28T11:57:15.618Z,93620.44
2022-09-28T11:59:32.011Z,93611.09
2022-09-28T12:01:57.822Z,93613.19
2022-09-28T12:04:04.438Z,93605.44
2022-09-28T12:06:09.103Z,93604.66
2022-09-28T12:08:19.958Z,93608.16
2022-09-28T12:10:49.985Z,93607.63
2022-09-28T12:12:58.429Z,93608.16
2022-09-28T12:15:04.557Z,93613.53
2022-09-28T12:18:04.773Z,93621.28
2022-09-28T12:20:27.715Z,93605.78
2022-09-28T12:22:35.180Z,93609.53
2022-09-28T12:24:44.448Z,93613.28
2022-09-28T12:27:10.096Z,93625.03
2022-09-28T12:29:26.173Z,93605.22
2022-09-28T12:31:32.487Z,93610.84
2022-09-28T12:33:34.213Z,93612.44
2022-09-28T12:35:41.322Z,93611.34
2022-09-28T12:37:45.781Z,93611.63
2022-09-28T12:40:13.130Z,93618.56
2022-09-28T12:42:44.440Z,93612.97
2022-09-28T12:44:46.017Z,93613.22
2022-09-28T12:47:16.284Z,93609.53
2022-09-28T12:51:48.584Z,93609.00
2022-09-28T12:54:19.004Z,93604.94
2022-09-28T12:56:24.388Z,93610.06
2022-09-28T12:58:44.823Z,93611.63
2022-09-28T13:00:59.661Z,93608.41
2022-09-28T13:03:31.424Z,93616.47
2022-09-28T13:06:09.816Z,93617.03
2022-09-28T13:08:25.516Z,93620.19
2022-09-28T13:10:35.964Z,93622.31
2022-09-28T13:13:02.449Z,93612.94
2022-09-28T13:15:39.842Z,93605.19
2022-09-28T13:17:54.877Z,93596.09
2022-09-28T13:20:15.733Z,93602.75
2022-09-28T13:22:35.893Z,93596.31
2022-09-28T13:24:38.994Z,93610.69
2022-09-28T13:26:44.866Z,93607.72
2022-09-28T13:28:47.687Z,93613.94
2022-09-28T13:30:50.759Z,93616.63
2022-09-28T13:32:54.478Z,93619.84
2022-09-28T13:34:56.724Z,93619.88
2022-09-28T13:37:23.537Z,93614.84
2022-09-28T13:39:37.686Z,93617.78
2022-09-28T13:41:40.620Z,93619.91
2022-09-28T13:44:00.449Z,93608.38
2022-09-28T13:46:34.486Z,93625.44
2022-09-28T13:48:48.757Z,93618.41
2022-09-28T13:51:12.000Z,93602.91
2022-09-28T13:53:25.784Z,93605.25
2022-09-28T13:55:48.914Z,93599.59
2022-09-28T13:58:31.012Z,93607.06
2022-09-28T14:00:43.539Z,93600.63
2022-09-28T14:02:54.235Z,93610.72
2022-09-28T14:05:04.810Z,93601.91
2022-09-28T14:07:23.232Z,93605.34
2022-09-28T14:09:39.041Z,93608.50
2022-09-28T14:11:43.868Z,93597.75
2022-09-28T14:14:21.528Z,93603.41
2022-09-28T14:16:24.078Z,93603.16
2022-09-28T14:18:29.935Z,93604.50
2022-09-28T14:20:31.935Z,93603.66
2022-09-28T14:22:36.159Z,93591.41
2022-09-28T14:25:06.518Z,93599.63
2022-09-28T14:27:17.284Z,93591.31
2022-09-28T14:29:29.779Z,93583.56
2022-09-28T14:31:31.419Z,93587.06
2022-09-28T14:33:34.124Z,93592.88
2022-09-28T14:35:40.505Z,93595.56
2022-09-28T14:38:01.152Z,93587.28
2022-09-28T14:40:54.449Z,93589.34
2022-09-28T14:43:33.375Z,93585.41
2022-09-28T14:45:36.456Z,93578.53
2022-09-28T14:47:42.814Z,93584.75
2022-09-28T14:49:45.780Z,93584.00
2022-09-28T14:51:47.328Z,93584.59
2022-09-28T14:53:50.577Z,93593.13
2022-09-28T14:55:58.536Z,93596.88
2022-09-28T14:58:00.123Z,93592.66
2022-09-28T15:00:09.056Z,93599.56
2022-09-28T15:02:10.598Z,93601.69
2022-09-28T15:04:12.901Z,93598.31
2022-09-28T15:06:16.203Z,93593.81
2022-09-28T15:08:21.098Z,93603.44
2022-09-28T15:10:27.703Z,93609.91
2022-09-28T15:12:32.963Z,93604.84
2022-09-28T15:14:40.542Z,93603.00
2022-09-28T15:16:42.274Z,93608.56
2022-09-28T15:19:09.471Z,93602.34
2022-09-28T15:21:12.472Z,93612.47
2022-09-28T15:23:39.160Z,93612.94
2022-09-28T15:25:41.027Z,93601.75
2022-09-28T15:27:42.867Z,93614.09
2022-09-28T15:30:15.612Z,93613.31
2022-09-28T15:32:24.912Z,93621.41
2022-09-28T15:34:46.452Z,93611.00
2022-09-28T15:36:48.389Z,93616.09
2022-09-28T15:39:00.510Z,93612.59
2022-09-28T15:41:06.891Z,93612.78
2022-09-28T15:43:28.954Z,93609.78
2022-09-28T15:45:35.307Z,93616.38
2022-09-28T15:47:38.830Z,93608.56
2022-09-28T15:49:44.534Z,93611.97
2022-09-28T15:51:50.210Z,93615.88
2022-09-28T15:53:58.414Z,93613.72
2022-09-28T15:56:05.639Z,93619.28
2022-09-28T15:58:15.867Z,93625.31
2022-09-28T16:00:26.281Z,93621.44
2022-09-28T16:02:28.114Z,93634.22
2022-09-28T16:04:48.261Z,93633.94
2022-09-28T16:07:27.636Z,93639.25
2022-09-28T16:09:36.081Z,93630.44
2022-09-28T16:11:42.054Z,93633.78
2022-09-28T16:14:01.878Z,93634.00
2022-09-28T16:16:03.599Z,93632.41
2022-09-28T16:18:20.796Z,93629.19
2022-09-28T16:20:40.287Z,93633.19
2022-09-28T16:22:43.139Z,93637.91
2022-09-28T16:24:54.274Z,93640.81
2022-09-28T16:27:07.388Z,93645.56
2022-09-28T16:29:25.825Z,93647.34
2022-09-28T16:31:33.770Z,93652.13
2022-09-28T16:33:43.784Z,93647.31
2022-09-28T16:35:48.337Z,93636.66
2022-09-28T16:37:58.078Z,93645.38
2022-09-28T16:39:59.657Z,93654.44
2022-09-28T16:42:03.184Z,93635.78
2022-09-28T16:44:04.931Z,93645.34
2022-09-28T16:46:12.127Z,93647.44
2022-09-28T16:48:17.157Z,93652.44
2022-09-28T16:50:22.913Z,93652.16
2022-09-28T16:52:43.070Z,93651.34
2022-09-28T16:55:07.442Z,93656.66
2022-09-28T16:57:19.506Z,93657.72
2022-09-28T16:59:22.313Z,93658.53
2022-09-28T17:01:24.716Z,93651.34
2022-09-28T17:03:27.259Z,93646.00
2022-09-28T17:05:29.540Z,93645.78
2022-09-28T17:07:31.899Z,93646.00
2022-09-28T17:09:33.951Z,93651.84
2022-09-28T17:11:35.514Z,93647.31
2022-09-28T17:13:37.493Z,93649.97
2022-09-28T17:15:40.097Z,93649.69
2022-09-28T17:17:41.954Z,93640.88
2022-09-28T17:19:44.862Z,93644.59
2022-09-28T17:21:46.879Z,93641.38
2022-09-28T17:23:49.814Z,93651.28
2022-09-28T17:25:53.752Z,93657.69
2022-09-28T17:27:57.708Z,93657.41
2022-09-28T17:29:59.337Z,93668.63
2022-09-28T17:32:01.108Z,93654.75
2022-09-28T17:34:03.018Z,93663.28
2022-09-28T17:36:05.255Z,93654.28
2022-09-28T17:38:06.997Z,93652.09
2022-09-28T17:40:35.095Z,93659.03
2022-09-28T17:42:36.816Z,93654.75
2022-09-28T17:44:38.379Z,93660.06
2022-09-28T17:46:47.454Z,93662.69
2022-09-28T17:48:49.760Z,93660.59
2022-09-28T17:50:51.361Z,93668.00
2022-09-28T17:52:53.325Z,93668.81
2022-09-28T17:54:55.197Z,93668.00
2022-09-28T17:56:56.843Z,93659.72
2022-09-28T17:59:10.740Z,93669.31
2022-09-28T18:01:12.614Z,93678.66
2022-09-28T18:03:24.669Z,93676.25
2022-09-28T18:05:27.754Z,93680.53
2022-09-28T18:07:31.160Z,93669.78
2022-09-28T18:09:32.730Z,93664.22
2022-09-28T18:11:35.278Z,93669.00
2022-09-28T18:13:37.443Z,93672.16
2022-09-28T18:15:39.047Z,93676.41
2022-09-28T18:17:40.906Z,93684.97
2022-09-28T18:19:42.560Z,93684.72
2022-09-28T18:21:44.118Z,93683.19
2022-09-28T18:23:45.738Z,93672.78
2022-09-28T18:25:48.348Z,93683.66
2022-09-28T18:27:49.930Z,93692.75
2022-09-28T18:29:51.678Z,93696.50
2022-09-28T18:31:53.326Z,93694.06
2022-09-28T18:34:01.757Z,93695.09
2022-09-28T18:36:04.638Z,93708.97
2022-09-28T18:38:07.007Z,93698.34
2022-09-28T18:40:10.223Z,93702.63
2022-09-28T18:42:12.746Z,93698.41
2022-09-28T18:44:14.732Z,93705.59
2022-09-28T18:46:18.310Z,93703.19
2022-09-28T18:48:20.188Z,93703.75
2022-09-28T18:50:22.172Z,93712.75
2022-09-28T18:52:23.801Z,93707.34
2022-09-28T18:54:25.512Z,93708.38
2022-09-28T18:56:27.186Z,93716.91
2022-09-28T18:58:28.773Z,93722.78
2022-09-28T19:00:30.422Z,93706.22
2022-09-28T19:02:32.273Z,93723.56
2022-09-28T19:04:34.027Z,93721.66
2022-09-28T19:06:40.720Z,93730.91
2022-09-28T19:08:43.217Z,93732.88
2022-09-28T19:10:46.958Z,93732.75
2022-09-28T19:12:48.648Z,93730.19
2022-09-28T19:14:50.321Z,93728.22
2022-09-28T19:16:52.075Z,93729.94
2022-09-28T19:18:53.965Z,93721.34
2022-09-28T19:20:55.822Z,93722.47
2022-09-28T19:22:57.787Z,93724.88
2022-09-28T19:24:59.427Z,93731.66
2022-09-28T19:27:01.008Z,93730.13
2022-09-28T19:29:03.290Z,93735.22
2022-09-28T19:31:06.662Z,93722.16
2022-09-28T19:33:08.260Z,93731.97
2022-09-28T19:35:10.003Z,93741.50
2022-09-28T19:37:11.665Z,93745.44
2022-09-28T19:39:14.716Z,93738.53
2022-09-28T19:41:42.225Z,93738.66
2022-09-28T19:43:44.942Z,93736.19
2022-09-28T19:45:52.072Z,93746.03
2022-09-28T19:47:58.666Z,93751.34
2022-09-28T19:50:00.919Z,93736.13
2022-09-28T19:52:15.886Z,93754.06
2022-09-28T19:54:19.075Z,93753.91
2022-09-28T19:56:21.618Z,93746.13
2022-09-28T19:58:25.775Z,93747.38
2022-09-28T20:00:27.786Z,93740.31
2022-09-28T20:02:29.459Z,93749.97
2022-09-28T20:04:31.128Z,93749.84
2022-09-28T20:06:32.809Z,93742.56
2022-09-28T20:08:35.735Z,93739.50
2022-09-28T20:10:37.619Z,93745.72
2022-09-28T20:12:41.145Z,93738.13
2022-09-28T20:14:42.926Z,93747.72
2022-09-28T20:16:46.344Z,93740.97
2022-09-28T20:18:51.608Z,93744.44
2022-09-28T20:21:02.301Z,93748.69
2022-09-28T20:23:04.899Z,93738.00
2022-09-28T20:25:07.089Z,93750.81
2022-09-28T20:27:08.744Z,93741.84
2022-09-28T20:29:10.917Z,93749.81
2022-09-28T20:31:18.167Z,93742.03
2022-09-28T20:33:28.657Z,93753.56
2022-09-28T20:35:33.334Z,93735.47
2022-09-28T20:37:35.066Z,93746.91
2022-09-28T20:39:39.394Z,93750.47
2022-09-28T20:41:43.491Z,93751.63
2022-09-28T20:43:46.795Z,93753.50
2022-09-28T20:45:50.787Z,93745.41
2022-09-28T20:47:52.696Z,93766.75
2022-09-28T20:49:54.265Z,93770.31
2022-09-28T20:51:55.928Z,93772.75
2022-09-28T20:53:58.891Z,93772.66
2022-09-28T20:56:21.731Z,93768.84
2022-09-28T20:58:23.375Z,93774.91
2022-09-28T21:00:25.078Z,93784.31
2022-09-28T21:02:26.845Z,93788.25
2022-09-28T21:04:28.572Z,93783.31
2022-09-28T21:06:32.306Z,93763.81
2022-09-28T21:08:33.814Z,93776.50
2022-09-28T21:10:35.395Z,93776.25
2022-09-28T21:12:37.532Z,93790.28
2022-09-28T21:14:39.103Z,93790.66
2022-09-28T21:16:40.730Z,93793.19
2022-09-28T21:18:43.017Z,93798.38
2022-09-28T21:20:50.528Z,93782.38
2022-09-28T21:22:52.187Z,93782.00
2022-09-28T21:24:53.920Z,93786.25
2022-09-28T21:26:55.694Z,93795.13
2022-09-28T21:29:05.719Z,93786.59
2022-09-28T21:31:09.676Z,93775.63
2022-09-28T21:33:11.352Z,93793.38
2022-09-28T21:35:12.984Z,93793.19
2022-09-28T21:37:14.830Z,93800.13
2022-09-28T21:39:16.659Z,93795.75
2022-09-28T21:41:18.226Z,93794.25
2022-09-28T21:43:19.997Z,93792.94
2022-09-28T21:45:21.870Z,93807.56
2022-09-28T21:47:23.502Z,93802.47
2022-09-28T21:49:25.132Z,93795.22
2022-09-28T21:51:27.219Z,93786.47
2022-09-28T21:53:34.624Z,93800.09
2022-09-28T21:55:36.742Z,93780.97
2022-09-28T21:57:38.326Z,93781.50
2022-09-28T21:59:39.944Z,93782.34
2022-09-28T22:01:42.841Z,93784.78
2022-09-28T22:03:48.011Z,93790.59
2022-09-28T22:05:51.606Z,93796.00
2022-09-28T22:07:54.072Z,93792.88
2022-09-28T22:09:55.651Z,93790.72
2022-09-28T22:11:57.325Z,93805.22
2022-09-28T22:14:00.213Z,93802.69
2022-09-28T22:16:02.328Z,93789.50
2022-09-28T22:18:04.029Z,93792.28
2022-09-28T22:20:06.189Z,93799.31
2022-09-28T22:22:08.657Z,93798.44
2022-09-28T22:24:10.445Z,93767.44
2022-09-28T22:26:17.896Z,93770.41
2022-09-28T22:28:19.587Z,93787.94
2022-09-28T22:30:21.202Z,93787.47
2022-09-28T22:32:24.091Z,93787.38
2022-09-28T22:34:27.436Z,93797.28
2022-09-28T22:36:29.450Z,93799.13
2022-09-28T22:38:32.184Z,93784.59
2022-09-28T22:40:33.886Z,93783.44
2022-09-28T22:42:35.506Z,93795.00
2022-09-28T22:44:37.802Z,93784.84
2022-09-28T22:46:39.688Z,93794.84
2022-09-28T22:48:44.669Z,93797.88
2022-09-28T22:50:50.807Z,93782.13
2022-09-28T22:52:52.381Z,93774.53
2022-09-28T22:54:54.097Z,93787.47
2022-09-28T22:56:55.806Z,93793.72
2022-09-28T22:58:57.963Z,93797.47
2022-09-28T23:01:14.778Z,93792.22
2022-09-28T23:03:16.636Z,93777.75
2022-09-28T23:05:19.179Z,93791.19
2022-09-28T23:07:21.744Z,93786.31
2022-09-28T23:09:23.372Z,93788.53
2022-09-28T23:11:25.088Z,93791.09
2022-09-28T23:13:27.239Z,93793.66
2022-09-28T23:15:29.656Z,93786.09
2022-09-28T23:17:31.290Z,93788.72
2022-09-28T23:19:33.231Z,93795.88
2022-09-28T23:21:34.839Z,93794.63
2022-09-28T23:23:36.431Z,93796.91
2022-09-28T23:25:38.212Z,93783.66
2022-09-28T23:27:39.882Z,93780.31
2022-09-28T23:29:46.886Z,93782.19
2022-09-28T23:31:48.529Z,93783.47
2022-09-28T23:33:50.848Z,93773.00
2022-09-28T23:35:52.427Z,93776.81
2022-09-28T23:37:54.078Z,93775.34
2022-09-28T23:39:56.076Z,93775.41
2022-09-28T23:41:58.954Z,93767.34
2022-09-28T23:44:00.969Z,93777.75
2022-09-28T23:46:03.977Z,93784.00
2022-09-28T23:48:05.640Z,93781.75
2022-09-28T23:50:08.045Z,93776.38
2022-09-28T23:52:09.678Z,93770.94
2022-09-28T23:54:11.631Z,93782.72
2022-09-28T23:56:14.774Z,93775.50
2022-09-28T23:58:16.461Z,93773.66
